Wednesday, January 17, 2018, 9:47 AM EST
Back to Local

KEEN, Keene, Dillant-hopkins Airport

Location: Keene, NH, United States Lat: 42.9
Local Time: 9:47 AM EST (14:47 GMT) Lon: -72.267
Time Zone: US/Eastern Elev: 488 ft

Show me the last for .
Show Decoded

2018-01-17 09:23 METAR KEEN 171423Z AUTO 00000KT 1 3/4SM -SN BR FEW026 OVC035 M01/M01 A3028 RMK
                 AO2 P0001 FZRANO =
2018-01-17 09:08 METAR KEEN 171408Z AUTO 01004KT 2SM -SN BR SCT024 OVC037 M01/M02 A3028 RMK AO2
                 VIS 1 1/2V3 P0000 FZRANO =
2018-01-17 08:56 METAR KEEN 171356Z AUTO 35004KT 2SM -SN BR BKN024 OVC037 M01/M02 A3028 RMK AO2
                 SLP275 P0002 T10111022 FZRANO =
2018-01-17 08:48 METAR KEEN 171348Z AUTO 36003KT 1 1/2SM -SN BR BKN022 BKN027 OVC037 M02/M02
                 A3028 RMK AO2 VIS 1V2 P0002 FZRANO =
2018-01-17 08:37 METAR KEEN 171337Z AUTO 36003KT 1SM -SN BR OVC022 M02/M03 A3028 RMK AO2 P0001
                 FZRANO =
2018-01-17 08:15 METAR KEEN 171315Z AUTO 01003KT 1 1/4SM -SN BR BKN022 OVC033 M02/M03 A3028 RMK
                 AO2 P0001 FZRANO =
2018-01-17 08:05 METAR KEEN 171305Z AUTO 00000KT 1 1/4SM -SN BR SCT022 OVC033 M02/M03 A3028 RMK
                 AO2 P0001 FZRANO =
2018-01-17 07:56 METAR KEEN 171256Z AUTO 00000KT 1SM -SN BR OVC035 M02/M03 A3028 RMK AO2 SLP277
                 P0002 T10221033 FZRANO =
2018-01-17 07:42 METAR KEEN 171242Z AUTO 02003KT 1 1/2SM -SN BR SCT022 OVC035 M02/M03 A3029 RMK
                 AO2 VIS 1V2 1/2 P0001 FZRANO =
2018-01-17 07:21 METAR KEEN 171221Z AUTO 02003KT 1 1/2SM -SN BR BKN022 OVC037 M02/M03 A3030 RMK
                 AO2 P0001 FZRANO =
2018-01-17 07:10 METAR KEEN 171210Z AUTO 02003KT 2SM -SN BR SCT019 BKN025 OVC037 M02/M03 A3030
                 RMK AO2 P0001 FZRANO =
2018-01-17 06:56 METAR KEEN 171156Z AUTO 03003KT 1 3/4SM -SN BR BKN015 OVC019 M02/M03 A3030 RMK
                 AO2 VIS 1 1/4V2 SLP283 P0001 60004 70014 T10221033 11022 21028 56006 FZRANO =
2018-01-17 06:54 METAR KEEN 171154Z AUTO 03003KT 1 3/4SM -SN BR BKN015 OVC019 M02/M03 A3030 RMK
                 AO2 VIS 1 1/4V2 P0001 FZRANO =
2018-01-17 06:45 METAR KEEN 171145Z AUTO 02003KT 1 1/4SM -SN BR OVC013 M03/M03 A3030 RMK AO2
                 P0001 FZRANO =
2018-01-17 06:29 METAR KEEN 171129Z AUTO 04004KT 1 3/4SM -SN BR OVC016 M03/M03 A3031 RMK AO2
                 P0001 FZRANO =
2018-01-17 06:09 METAR KEEN 171109Z AUTO 03003KT 4SM -SN BR OVC020 M03/M03 A3032 RMK AO2 P0001
                 FZRANO =
2018-01-17 05:56 METAR KEEN 171056Z AUTO 00000KT 2 1/2SM -SN BR OVC020 M03/M03 A3031 RMK AO2 VIS
                 2V3 SLP288 P0002 T10281033 FZRANO =
2018-01-17 05:36 METAR KEEN 171036Z AUTO 02003KT 2 1/2SM -SN BR BKN022 OVC038 M03/M03 A3029 RMK
                 AO2 VIS 1 3/4V3 P0000 FZRANO =
2018-01-17 05:14 METAR KEEN 171014Z AUTO 00000KT 2 1/2SM -SN BR SCT026 OVC038 M03/M03 A3031 RMK
                 AO2 VIS 2V3 P0000 FZRANO =
2018-01-17 05:03 METAR KEEN 171003Z AUTO 00000KT 2SM -SN BR BKN026 OVC034 M03/M03 A3031 RMK AO2
                 P0000 FZRANO =
2018-01-17 04:56 METAR KEEN 170956Z AUTO 00000KT 1 3/4SM -SN BR FEW013 BKN026 OVC034 M03/M03
                 A3032 RMK AO2 SLP289 P0000 T10281033 FZRANO =
2018-01-17 04:51 METAR KEEN 170951Z AUTO 04003KT 1 3/4SM -SN BR SCT013 BKN026 OVC034 M03/M03
                 A3032 RMK AO2 P0000 FZRANO =
2018-01-17 04:42 METAR KEEN 170942Z AUTO 05003KT 1 1/2SM -SN BR BKN013 OVC026 M03/M03 A3032 RMK
                 AO2 P0000 FZRANO =
2018-01-17 04:18 METAR KEEN 170918Z AUTO 00000KT 1SM -SN BR OVC013 M03/M04 A3032 RMK AO2 P0000
                 FZRANO =
2018-01-17 04:04 METAR KEEN 170904Z AUTO 05003KT 1 1/4SM -SN BR OVC013 M03/M04 A3032 RMK AO2
                 P0000 FZRANO =
2018-01-17 03:56 METAR KEEN 170856Z AUTO 00000KT 1SM -SN BR OVC013 M03/M04 A3032 RMK AO2 SLP291
                 P0001 60001 T10281039 56009 FZRANO =
2018-01-17 03:47 METAR KEEN 170847Z AUTO 00000KT 1SM -SN BR OVC013 M03/M04 A3033 RMK AO2 P0001
                 FZRANO =
2018-01-17 03:32 METAR KEEN 170832Z AUTO 00000KT 1 1/4SM -SN BR OVC015 M03/M04 A3033 RMK AO2
                 P0001 FZRANO =
2018-01-17 03:12 METAR KEEN 170812Z AUTO 00000KT 1SM -SN BR OVC015 M03/M04 A3034 RMK AO2 P0001
                 FZRANO =
2018-01-17 03:02 METAR KEEN 170802Z AUTO 00000KT 1 1/4SM -SN BR OVC015 M03/M04 A3033 RMK AO2
                 P0001 FZRANO =
2018-01-17 02:56 METAR KEEN 170756Z AUTO 02003KT 1SM -SN BR BKN013 OVC019 M03/M04 A3033 RMK AO2
                 SLP294 P0000 T10281039 FZRANO =
2018-01-17 01:56 METAR KEEN 170656Z AUTO 00000KT 1 1/2SM -SN BR OVC019 M03/M04 A3034 RMK AO2
                 SLP297 P0000 T10281039 FZRANO =
2018-01-17 00:56 METAR KEEN 170556Z AUTO 00000KT 1 1/2SM -SN BR OVC019 M03/M04 A3035 RMK AO2
                 SLP300 P0003 60010 T10281044 11028 21028 58016 FZRANO =
2018-01-16 23:56 METAR KEEN 170456Z AUTO 00000KT 1 1/2SM -SN BR BKN016 OVC021 M03/M04 A3037 RMK
                 AO2 UPB03E09SNE03B09 SLP306 P0001 T10281044 400111089 FZRANO =
2018-01-16 22:56 METAR KEEN 170356Z AUTO 00000KT 1 1/2SM -SN BR OVC018 M03/M04 A3039 RMK AO2
                 SLP311 P0002 T10281039 FZRANO =
2018-01-16 21:56 METAR KEEN 170256Z AUTO 00000KT 2 1/2SM -SN BR OVC028 M03/M04 A3040 RMK AO2
                 SLP316 P0001 60004 T10281039 58004 FZRANO =
2018-01-16 21:07 METAR KEEN 170207Z AUTO 00000KT 2SM -SN BR OVC024 M03/M04 A3040 RMK AO2 P0000
                 FZRANO =
2018-01-16 20:56 METAR KEEN 170156Z AUTO 00000KT 1 3/4SM -SN BR OVC024 M03/M04 A3040 RMK AO2
                 SLP317 P0003 T10281039 FZRANO =
2018-01-16 20:49 METAR KEEN 170149Z AUTO 00000KT 2SM -SN BR BKN022 OVC028 M03/M04 A3041 RMK AO2
                 P0002 FZRANO =
2018-01-16 20:38 METAR KEEN 170138Z AUTO 00000KT 1 3/4SM -SN BR FEW007 SCT023 OVC028 M03/M04
                 A3041 RMK AO2 P0001 FZRANO =
2018-01-16 20:17 METAR KEEN 170117Z AUTO 00000KT 2SM -SN BR FEW009 BKN024 OVC029 M03/M04 A3041
                 RMK AO2 P0001 FZRANO =
2018-01-16 19:56 METAR KEEN 170056Z AUTO 00000KT 1 3/4SM -SN BR FEW009 SCT017 OVC024 M03/M04
                 A3041 RMK AO2 SLP321 P0000 T10281039 FZRANO =
2018-01-16 19:49 METAR KEEN 170049Z AUTO 00000KT 2SM -SN BR FEW009 BKN017 OVC027 M03/M04 A3041
                 RMK AO2 P0000 FZRANO =
2018-01-16 18:56 METAR KEEN 162356Z AUTO 00000KT 4SM -SN BR BKN037 OVC050 M03/M04 A3041 RMK AO2
                 SLP321 P0000 60000 T10281039 10011 21028 58001 FZRANO =
2018-01-16 17:56 METAR KEEN 162256Z AUTO 00000KT 5SM -SN BR BKN038 OVC047 M03/M04 A3041 RMK AO2
                 SLP321 P0000 T10281044 FZRANO =
2018-01-16 17:21 METAR KEEN 162221Z AUTO 25003KT 4SM -SN BR SCT018 OVC044 M02/M04 A3042 RMK AO2
                 P0000 FZRANO =
2018-01-16 16:56 METAR KEEN 162156Z AUTO 20003KT 5SM -SN BR SCT018 BKN025 OVC036 M02/M04 A3042
                 RMK AO2 UPB04E19SNB19 SLP323 P0000 T10221044 FZRANO =
2018-01-16 16:32 METAR KEEN 162132Z AUTO 18004KT 3SM -SN BKN027 BKN032 OVC038 M02/M05 A3042 RMK
                 AO2 UPB04E19SNB19 P0000 FZRANO =
2018-01-16 16:25 METAR KEEN 162125Z AUTO 18005KT 2 1/2SM -SN FEW022 BKN031 OVC037 M02/M04 A3042
                 RMK AO2 VIS 2V4 UPB04E19SNB19 P0000 FZRANO =
2018-01-16 16:18 METAR KEEN 162118Z AUTO 18004KT 5SM UP SCT022 SCT029 OVC037 M01/M05 A3041 RMK
                 AO2 UPB04 P0000 FZRANO =
2018-01-16 16:05 METAR KEEN 162105Z AUTO 18005KT 10SM UP BKN022 BKN047 OVC060 M01/M05 A3041 RMK
                 AO2 UPB04 P0000 FZRANO =
2018-01-16 15:56 METAR KEEN 162056Z AUTO VRB04KT 10SM SCT022 BKN046 OVC060 M01/M06 A3042 RMK AO2
                 UPB07E18B42E56 SLP321 P0000 60000 T10111056 55001 FZRANO =
2018-01-16 15:20 METAR KEEN 162020Z AUTO 22004KT 10SM SCT025 BKN038 OVC065 M01/M06 A3041 RMK AO2
                 UPB07E18 P0000 FZRANO =
2018-01-16 14:56 METAR KEEN 161956Z AUTO 21006KT 10SM BKN025 BKN032 OVC042 M01/M06 A3041 RMK AO2
                 SLP320 T10061056 FZRANO TSNO =
2018-01-16 14:47 METAR KEEN 161947Z AUTO 21007KT 10SM BKN025 BKN034 OVC043 M01/M06 A3041 RMK AO2
                 FZRANO =
2018-01-16 13:56 METAR KEEN 161856Z AUTO 20007KT 10SM SCT025 BKN035 OVC043 00/M06 A3041 RMK AO2
                 SLP319 T00001061 FZRANO TSNO =
2018-01-16 12:56 METAR KEEN 161756Z AUTO 00000KT 10SM BKN047 OVC060 01/M07 A3042 RMK AO2
                 UPB06E48RAB32E35SNE06 SLP321 P0000 60000 T00061067 10011 21083 58028 FZRANO =
2018-01-16 11:56 METAR KEEN 161656Z AUTO 00000KT 7SM -SN FEW027 OVC039 M03/M07 A3045 RMK AO2
                 SLP332 P0000 T10281067 FZRANO =
2018-01-16 11:42 METAR KEEN 161642Z AUTO 00000KT 7SM -SN FEW027 OVC039 M03/M08 A3046 RMK AO2
                 P0000 FZRANO =
2018-01-16 10:56 METAR KEEN 161556Z AUTO 19003KT 9SM -SN OVC021 M04/M08 A3049 RMK AO2 SNB50
                 SLP348 P0000 T10441083 FZRANO =
2018-01-16 09:56 METAR KEEN 161456Z AUTO 22003KT 10SM OVC021 M06/M09 A3050 RMK AO2 SLP350 60000
                 T10611094 50007 FZRANO =

Support USWX by starting your Amazon purchase here.